createdAt,value
2023-01-30T00:00:35.247Z,99321
2023-01-30T00:01:39.463Z,99323.45
2023-01-30T00:02:43.554Z,99324.88
2023-01-30T00:03:47.671Z,99329
2023-01-30T00:04:51.897Z,99323.64
2023-01-30T00:05:56.091Z,99323.31
2023-01-30T00:07:00.239Z,99316.58
2023-01-30T00:08:04.367Z,99310.41
2023-01-30T00:09:08.476Z,99316.28
2023-01-30T00:10:12.639Z,99307.8
2023-01-30T00:11:16.851Z,99310.7
2023-01-30T00:12:20.971Z,99303.6
2023-01-30T00:13:25.071Z,99295.53
2023-01-30T00:14:29.156Z,99289.14
2023-01-30T00:15:33.265Z,99288.8
2023-01-30T00:16:37.663Z,99288.02
2023-01-30T00:17:41.870Z,99272.93
2023-01-30T00:18:45.982Z,99273.67
2023-01-30T00:19:50.150Z,99272.93
2023-01-30T00:20:54.252Z,99274.19
2023-01-30T00:21:58.351Z,99266.23
2023-01-30T00:23:02.791Z,99272.93
2023-01-30T00:24:06.903Z,99261.78
2023-01-30T00:25:11.385Z,99261.52
2023-01-30T00:26:15.919Z,99258.39
2023-01-30T00:27:20.156Z,99257.28
2023-01-30T00:28:24.283Z,99255.02
2023-01-30T00:29:28.392Z,99245.72
2023-01-30T00:30:32.566Z,99250.96
2023-01-30T00:31:37.110Z,99250.22
2023-01-30T00:32:42.259Z,99248.09
2023-01-30T00:33:47.558Z,99242.86
2023-01-30T00:34:51.642Z,99238.51
2023-01-30T00:35:55.752Z,99235.5
2023-01-30T00:37:08.828Z,99228.81
2023-01-30T00:38:12.963Z,99232.94
2023-01-30T00:39:17.078Z,99230.78
2023-01-30T00:40:21.664Z,99234.79
2023-01-30T00:41:25.758Z,99221.89
2023-01-30T00:42:29.849Z,99219.62
2023-01-30T00:43:33.983Z,99217.58
2023-01-30T00:44:38.091Z,99213.45
2023-01-30T00:45:42.249Z,99212.23
2023-01-30T00:46:46.531Z,99206.06
2023-01-30T00:47:50.624Z,99208.41
2023-01-30T00:48:54.716Z,99206.77
2023-01-30T00:49:58.839Z,99196.14
2023-01-30T00:51:02.944Z,99194.06
2023-01-30T00:52:07.116Z,99185.52
2023-01-30T00:53:11.246Z,99185.33
2023-01-30T00:54:15.380Z,99175.22
2023-01-30T00:55:20.243Z,99171.72
2023-01-30T00:56:24.450Z,99180.34
2023-01-30T00:57:28.564Z,99180.57
2023-01-30T00:58:32.664Z,99177.78
2023-01-30T00:59:36.789Z,99176.03
2023-01-30T01:00:40.896Z,99170.91
2023-01-30T01:01:45.060Z,99170.47
2023-01-30T01:02:49.242Z,99173.25
2023-01-30T01:03:53.426Z,99172.51
2023-01-30T01:04:57.564Z,99159.95
2023-01-30T01:06:01.675Z,99167.67
2023-01-30T01:07:06.088Z,99160.03
2023-01-30T01:08:10.255Z,99165.19
2023-01-30T01:09:14.354Z,99159.54
2023-01-30T01:10:18.443Z,99152.22
2023-01-30T01:11:22.550Z,99149.55
2023-01-30T01:12:26.704Z,99145.42
2023-01-30T01:13:30.811Z,99140.59
2023-01-30T01:14:35.283Z,99138.84
2023-01-30T01:15:39.767Z,99143.42
2023-01-30T01:16:43.923Z,99140.83
2023-01-30T01:17:48.031Z,99135.36
2023-01-30T01:18:52.125Z,99141.34
2023-01-30T01:19:56.223Z,99135.36
2023-01-30T01:21:00.310Z,99132.91
2023-01-30T01:22:04.512Z,99133.84
2023-01-30T01:23:08.628Z,99123.92
2023-01-30T01:24:12.745Z,99121.88
2023-01-30T01:25:17.657Z,99116.94
2023-01-30T01:26:22.469Z,99124.25
2023-01-30T01:27:26.660Z,99122.5
2023-01-30T01:28:30.808Z,99118.68
2023-01-30T01:29:34.894Z,99117.34
2023-01-30T01:30:38.980Z,99117.86
2023-01-30T01:31:43.417Z,99109.28
2023-01-30T01:32:47.751Z,99116.71
2023-01-30T01:33:51.873Z,99115.38
2023-01-30T01:34:55.997Z,99112.07
2023-01-30T01:36:00.116Z,99118.13
2023-01-30T01:37:06.795Z,99115.97
2023-01-30T01:38:10.886Z,99109.39
2023-01-30T01:39:15.016Z,99099.89
2023-01-30T01:40:19.102Z,99107.65
2023-01-30T01:41:23.253Z,99103.64
2023-01-30T01:42:27.395Z,99092.38
2023-01-30T01:43:31.495Z,99091.19
2023-01-30T01:44:35.607Z,99086.95
2023-01-30T01:45:39.781Z,99082.5
2023-01-30T01:46:43.925Z,99079.2
2023-01-30T01:47:48.032Z,99081.28
2023-01-30T01:48:52.178Z,99078.72
2023-01-30T01:49:56.279Z,99075.19
2023-01-30T01:51:00.358Z,99070.25
2023-01-30T01:52:04.453Z,99067.66
2023-01-30T01:53:08.562Z,99073.22
2023-01-30T01:54:12.650Z,99066.02
2023-01-30T01:55:17.805Z,99070.84
2023-01-30T01:56:22.409Z,99069.84
2023-01-30T01:57:26.511Z,99065.61
2023-01-30T01:58:30.603Z,99065.83
2023-01-30T01:59:34.968Z,99063.23
2023-01-30T02:00:39.164Z,99059.19
2023-01-30T02:01:43.248Z,99056.33
2023-01-30T02:02:47.327Z,99052.61
2023-01-30T02:03:51.420Z,99041.47
2023-01-30T02:04:55.508Z,99047.56
2023-01-30T02:05:59.636Z,99053.12
2023-01-30T02:07:04.217Z,99051.35
2023-01-30T02:08:08.643Z,99044.67
2023-01-30T02:09:12.751Z,99045.89
2023-01-30T02:10:16.870Z,99042.18
2023-01-30T02:11:21.005Z,99036.09
2023-01-30T02:12:25.129Z,99033.94
2023-01-30T02:13:29.228Z,99031.48
2023-01-30T02:14:33.379Z,99027.25
2023-01-30T02:15:37.474Z,99032.79
2023-01-30T02:16:41.658Z,99027.14
2023-01-30T02:17:45.878Z,99030.52
2023-01-30T02:18:50.049Z,99031.16
2023-01-30T02:19:54.242Z,99026.63
2023-01-30T02:20:58.383Z,99024.87
2023-01-30T02:22:02.507Z,99018.69
2023-01-30T02:23:06.614Z,99023.32
2023-01-30T02:24:10.778Z,99028.67
2023-01-30T02:25:14.912Z,99026.41
2023-01-30T02:26:19.650Z,99024.63
2023-01-30T02:27:23.836Z,99022.47
2023-01-30T02:28:27.935Z,99021.02
2023-01-30T02:29:32.037Z,99018.87
2023-01-30T02:30:36.389Z,99028.64
2023-01-30T02:31:40.843Z,99028.12
2023-01-30T02:32:45.039Z,99030.16
2023-01-30T02:33:49.156Z,99024.52
2023-01-30T02:34:53.327Z,99025.94
2023-01-30T02:35:57.408Z,99019.22
2023-01-30T02:37:01.519Z,99026.86
2023-01-30T02:38:05.642Z,99024.48
2023-01-30T02:39:09.852Z,99018.8
2023-01-30T02:40:13.948Z,99017.98
2023-01-30T02:41:18.049Z,99006.77
2023-01-30T02:42:22.159Z,99019.22
2023-01-30T02:43:26.275Z,99014.39
2023-01-30T02:44:30.373Z,99006.44
2023-01-30T02:45:34.468Z,99008
2023-01-30T02:46:38.668Z,99001.5
2023-01-30T02:47:42.754Z,99001.09
2023-01-30T02:48:46.863Z,98998.42
2023-01-30T02:49:50.996Z,99006.03
2023-01-30T02:50:55.114Z,98999.76
2023-01-30T02:51:59.229Z,98997.69
2023-01-30T02:53:04.019Z,98994.71
2023-01-30T02:54:08.994Z,98989.74
2023-01-30T02:55:13.091Z,98991.19
2023-01-30T02:56:17.176Z,98996.23
2023-01-30T02:57:21.285Z,98991.19
2023-01-30T02:58:25.378Z,98988.63
2023-01-30T02:59:29.470Z,98983.88
2023-01-30T03:00:33.576Z,98974.93
2023-01-30T03:01:37.862Z,98975.64
2023-01-30T03:02:42.313Z,98979.65
2023-01-30T03:03:46.595Z,98981.09
2023-01-30T03:04:50.708Z,98975.94
2023-01-30T03:05:54.820Z,98973.45
2023-01-30T03:06:58.908Z,98962.69
2023-01-30T03:08:03.011Z,98964.84
2023-01-30T03:09:07.127Z,98967.84
2023-01-30T03:10:12.252Z,98969.28
2023-01-30T03:11:17.105Z,98964.87
2023-01-30T03:12:21.511Z,98964.73
2023-01-30T03:13:26.028Z,98967.52
2023-01-30T03:14:30.741Z,98962.16
2023-01-30T03:15:34.844Z,98959.9
2023-01-30T03:16:38.986Z,98961.45
2023-01-30T03:17:43.107Z,98956.82
2023-01-30T03:18:47.209Z,98959.82
2023-01-30T03:19:51.447Z,98954.85
2023-01-30T03:20:55.565Z,98951.88
2023-01-30T03:21:59.970Z,98957.75
2023-01-30T03:23:04.107Z,98952.81
2023-01-30T03:24:08.193Z,98949.7
2023-01-30T03:25:12.305Z,98946.5
2023-01-30T03:26:16.489Z,98942.01
2023-01-30T03:27:20.723Z,98943.97
2023-01-30T03:28:24.818Z,98940.05
2023-01-30T03:29:28.907Z,98935.22
2023-01-30T03:30:33.186Z,98941.16
2023-01-30T03:31:37.803Z,98933.66
2023-01-30T03:32:42.146Z,98937.38
2023-01-30T03:33:46.257Z,98936.93
2023-01-30T03:34:50.342Z,98941.45
2023-01-30T03:35:54.425Z,98943.31
2023-01-30T03:36:58.569Z,98945.98
2023-01-30T03:38:02.658Z,98940.64
2023-01-30T03:39:06.747Z,98936.49
2023-01-30T03:40:10.869Z,98932.19
2023-01-30T03:41:14.976Z,98935.89
2023-01-30T03:42:19.099Z,98934.04
2023-01-30T03:43:23.180Z,98931.88
2023-01-30T03:44:27.289Z,98929.73
2023-01-30T03:45:31.384Z,98923.12
2023-01-30T03:46:35.916Z,98919.12
2023-01-30T03:47:40.031Z,98909.36
2023-01-30T03:48:44.134Z,98916.97
2023-01-30T03:49:48.256Z,98902.45
2023-01-30T03:50:52.346Z,98918.3
2023-01-30T03:51:56.444Z,98916.38
2023-01-30T03:53:00.539Z,98917.41
2023-01-30T03:54:04.665Z,98908.88
2023-01-30T03:55:08.785Z,98905.92
2023-01-30T03:56:12.919Z,98907.78
2023-01-30T03:57:17.095Z,98909.23
2023-01-30T03:58:21.199Z,98912.97
2023-01-30T03:59:25.361Z,98908.33
2023-01-30T04:00:29.457Z,98911.03
2023-01-30T04:01:33.921Z,98902.44
2023-01-30T04:02:38.313Z,98901.94
2023-01-30T04:03:42.485Z,98894.77
2023-01-30T04:04:46.671Z,98897.33
2023-01-30T04:05:50.787Z,98888.59
2023-01-30T04:06:54.899Z,98891.89
2023-01-30T04:07:59.007Z,98892.03
2023-01-30T04:09:03.340Z,98893.88
2023-01-30T04:10:07.474Z,98890.93
2023-01-30T04:11:11.593Z,98897.5
2023-01-30T04:12:15.722Z,98891.03
2023-01-30T04:13:19.826Z,98891.85
2023-01-30T04:14:23.929Z,98893.09
2023-01-30T04:15:28.056Z,98890.42
2023-01-30T04:16:32.227Z,98878.91
2023-01-30T04:17:36.330Z,98881.61
2023-01-30T04:18:40.542Z,98881.3
2023-01-30T04:19:44.674Z,98876.14
2023-01-30T04:20:48.871Z,98882.74
2023-01-30T04:21:53.005Z,98875.88
2023-01-30T04:22:57.114Z,98878.53
2023-01-30T04:24:01.224Z,98872.98
2023-01-30T04:25:05.376Z,98868.67
2023-01-30T04:26:09.714Z,98872.21
2023-01-30T04:27:13.914Z,98866.84
2023-01-30T04:28:17.999Z,98865.44
2023-01-30T04:29:22.159Z,98856.6
2023-01-30T04:30:26.405Z,98861.34
2023-01-30T04:31:30.748Z,98859.78
2023-01-30T04:32:34.978Z,98873.78
2023-01-30T04:33:39.083Z,98864.55
2023-01-30T04:34:43.441Z,98862.5
2023-01-30T04:35:47.533Z,98865.16
2023-01-30T04:36:51.648Z,98856.64
2023-01-30T04:37:55.736Z,98856.45
2023-01-30T04:38:59.889Z,98845.53
2023-01-30T04:40:03.992Z,98847.38
2023-01-30T04:41:08.180Z,98847.59
2023-01-30T04:42:12.297Z,98844.29
2023-01-30T04:43:16.420Z,98850.98
2023-01-30T04:44:20.550Z,98857.06
2023-01-30T04:45:24.647Z,98853.45
2023-01-30T04:46:28.776Z,98852.95
2023-01-30T04:47:32.960Z,98861.59
2023-01-30T04:48:37.298Z,98852.95
2023-01-30T04:49:41.459Z,98853.57
2023-01-30T04:50:45.603Z,98848.44
2023-01-30T04:51:49.718Z,98840.12
2023-01-30T04:52:53.865Z,98834.86
2023-01-30T04:53:57.958Z,98829.5
2023-01-30T04:55:02.068Z,98830.52
2023-01-30T04:56:06.171Z,98837.34
2023-01-30T04:57:10.378Z,98830.23
2023-01-30T04:58:14.493Z,98828.59
2023-01-30T04:59:18.635Z,98826.23
2023-01-30T05:00:22.727Z,98820.46
2023-01-30T05:01:26.843Z,98825.91
2023-01-30T05:02:30.963Z,98828.8
2023-01-30T05:03:35.108Z,98833.02
2023-01-30T05:04:39.225Z,98827.87
2023-01-30T05:05:43.304Z,98829
2023-01-30T05:06:47.596Z,98828.48
2023-01-30T05:07:51.709Z,98833.66
2023-01-30T05:08:55.819Z,98828.3
2023-01-30T05:09:59.922Z,98824.28
2023-01-30T05:11:04.088Z,98834.16
2023-01-30T05:12:08.238Z,98837.04
2023-01-30T05:13:12.359Z,98835.81
2023-01-30T05:14:16.453Z,98839.83
2023-01-30T05:15:21.202Z,98831.39
2023-01-30T05:16:25.371Z,98834.88
2023-01-30T05:17:29.577Z,98832.91
2023-01-30T05:18:33.921Z,98827.67
2023-01-30T05:19:38.028Z,98829.54
2023-01-30T05:20:42.170Z,98825
2023-01-30T05:21:46.323Z,98820.88
2023-01-30T05:22:50.405Z,98830.14
2023-01-30T05:23:54.577Z,98828.31
2023-01-30T05:24:58.687Z,98823.25
2023-01-30T05:26:02.778Z,98820.77
2023-01-30T05:27:06.868Z,98819.14
2023-01-30T05:28:11.000Z,98812.02
2023-01-30T05:29:15.112Z,98812.13
2023-01-30T05:30:19.333Z,98802.03
2023-01-30T05:31:23.741Z,98802.03
2023-01-30T05:32:28.024Z,98795.13
2023-01-30T05:33:32.210Z,98800.8
2023-01-30T05:34:36.515Z,98786.8
2023-01-30T05:35:40.622Z,98784.64
2023-01-30T05:36:44.761Z,98785.05
2023-01-30T05:37:48.868Z,98782.16
2023-01-30T05:38:52.961Z,98776.08
2023-01-30T05:39:57.102Z,98772.98
2023-01-30T05:41:01.232Z,98773.83
2023-01-30T05:42:05.361Z,98770.33
2023-01-30T05:43:09.472Z,98766.8
2023-01-30T05:44:13.685Z,98771.14
2023-01-30T05:45:18.625Z,98764.77
2023-01-30T05:46:23.365Z,98771.95
2023-01-30T05:47:27.602Z,98776.08
2023-01-30T05:48:31.736Z,98772.27
2023-01-30T05:49:35.859Z,98774.85
2023-01-30T05:50:43.621Z,98776.8
2023-01-30T05:51:49.396Z,98787.42
2023-01-30T05:52:54.947Z,98787.7
2023-01-30T05:53:59.071Z,98787.91
2023-01-30T05:55:03.185Z,98781.72
2023-01-30T05:56:07.381Z,98784.61
2023-01-30T05:57:11.652Z,98783.39
2023-01-30T05:58:15.846Z,98770.2
2023-01-30T05:59:19.963Z,98756.81
2023-01-30T06:00:24.133Z,98760.11
2023-01-30T06:01:28.291Z,98759.48
2023-01-30T06:02:32.563Z,98753.11
2023-01-30T06:03:36.839Z,98745.69
2023-01-30T06:04:41.024Z,98742.72
2023-01-30T06:05:45.179Z,98744.27
2023-01-30T06:06:49.300Z,98732.62
2023-01-30T06:07:53.404Z,98736.34
2023-01-30T06:08:57.496Z,98737.89
2023-01-30T06:10:01.629Z,98736.75
2023-01-30T06:11:05.880Z,98739.52
2023-01-30T06:12:10.013Z,98740.25
2023-01-30T06:13:14.172Z,98738.59
2023-01-30T06:14:18.256Z,98739.11
2023-01-30T06:15:22.404Z,98735.2
2023-01-30T06:16:27.087Z,98733.46
2023-01-30T06:17:31.264Z,98725.02
2023-01-30T06:18:35.355Z,98720.16
2023-01-30T06:19:39.451Z,98719.45
2023-01-30T06:20:43.994Z,98722.13
2023-01-30T06:21:48.129Z,98718.82
2023-01-30T06:22:52.285Z,98718.31
2023-01-30T06:23:56.385Z,98716.89
2023-01-30T06:25:00.485Z,98725.2
2023-01-30T06:26:09.406Z,98719.98
2023-01-30T06:27:13.565Z,98705.66
2023-01-30T06:28:17.727Z,98695.78
2023-01-30T06:29:21.886Z,98694.84
2023-01-30T06:30:26.127Z,98691.03
2023-01-30T06:31:30.379Z,98684.87
2023-01-30T06:32:34.591Z,98684.87
2023-01-30T06:33:38.745Z,98673.03
2023-01-30T06:34:42.826Z,98668.52
2023-01-30T06:35:46.992Z,98670.06
2023-01-30T06:36:51.120Z,98659.56
2023-01-30T06:37:55.224Z,98672.63
2023-01-30T06:38:59.396Z,98665.72
2023-01-30T06:40:03.525Z,98674.59
2023-01-30T06:41:07.636Z,98673.66
2023-01-30T06:42:11.749Z,98670.77
2023-01-30T06:43:15.844Z,98669.44
2023-01-30T06:44:19.975Z,98654.59
2023-01-30T06:45:24.142Z,98656.55
2023-01-30T06:46:28.408Z,98640.08
2023-01-30T06:47:32.704Z,98634.94
2023-01-30T06:48:36.809Z,98657.35
2023-01-30T06:49:40.973Z,98665.09
2023-01-30T06:50:45.091Z,98670.03
2023-01-30T06:51:49.201Z,98662.52
2023-01-30T06:52:53.311Z,98660.05
2023-01-30T06:53:57.410Z,98661.8
2023-01-30T06:55:01.572Z,98666.3
2023-01-30T06:56:05.708Z,98657.36
2023-01-30T06:57:09.905Z,98659.41
2023-01-30T06:58:14.043Z,98659.92
2023-01-30T06:59:18.184Z,98646.45
2023-01-30T07:00:22.399Z,98645.85
2023-01-30T07:01:29.120Z,98644.19
2023-01-30T07:02:33.573Z,98643.38
2023-01-30T07:03:37.701Z,98635.66
2023-01-30T07:04:41.820Z,98645.32
2023-01-30T07:05:46.410Z,98634.33
2023-01-30T07:06:50.557Z,98633.27
2023-01-30T07:07:54.672Z,98635.14
2023-01-30T07:08:58.892Z,98639.14
2023-01-30T07:10:09.545Z,98636.06
2023-01-30T07:11:13.733Z,98628.36
2023-01-30T07:12:17.842Z,98630.5
2023-01-30T07:13:21.975Z,98633.8
2023-01-30T07:14:26.107Z,98625.04
2023-01-30T07:15:30.231Z,98616.4
2023-01-30T07:16:34.458Z,98613.64
2023-01-30T07:17:38.647Z,98600.87
2023-01-30T07:18:42.739Z,98598.61
2023-01-30T07:19:46.866Z,98594.59
2023-01-30T07:20:51.044Z,98590.18
2023-01-30T07:21:55.168Z,98583.41
2023-01-30T07:22:59.286Z,98589.98
2023-01-30T07:24:03.463Z,98552.73
2023-01-30T07:25:07.616Z,98588.94
2023-01-30T07:26:11.809Z,98606.22
2023-01-30T07:27:16.119Z,98611.16
2023-01-30T07:28:20.291Z,98611.27
2023-01-30T07:29:24.414Z,98604.91
2023-01-30T07:30:28.779Z,98613.63
2023-01-30T07:31:33.171Z,98610.94
2023-01-30T07:32:37.442Z,98624.11
2023-01-30T07:33:41.601Z,98614.74
2023-01-30T07:34:45.703Z,98613.13
2023-01-30T07:35:49.849Z,98617.62
2023-01-30T07:36:54.006Z,98615.47
2023-01-30T07:37:58.188Z,98607.03
2023-01-30T07:39:02.388Z,98611.89
2023-01-30T07:40:06.544Z,98615.27
2023-01-30T07:41:10.663Z,98613.02
2023-01-30T07:42:14.841Z,98624.73
2023-01-30T07:43:18.983Z,98622.45
2023-01-30T07:44:23.103Z,98628.02
2023-01-30T07:45:27.209Z,98635.11
2023-01-30T07:46:31.321Z,98628.13
2023-01-30T07:47:35.448Z,98626.98
2023-01-30T07:48:39.634Z,98623.78
2023-01-30T07:49:44.566Z,98620.39
2023-01-30T07:50:48.720Z,98614.13
2023-01-30T07:51:52.863Z,98614.22
2023-01-30T07:52:57.000Z,98617.62
2023-01-30T07:54:01.285Z,98617.51
2023-01-30T07:55:05.559Z,98616.69
2023-01-30T07:56:09.714Z,98611.55
2023-01-30T07:57:13.889Z,98607.11
2023-01-30T07:58:18.022Z,98607.53
2023-01-30T07:59:22.139Z,98601.38
2023-01-30T08:00:26.259Z,98608.06
2023-01-30T08:01:30.535Z,98604.57
2023-01-30T08:02:34.753Z,98609.59
2023-01-30T08:03:38.857Z,98607.64
2023-01-30T08:04:43.103Z,98617.61
2023-01-30T08:05:47.364Z,98614.95
2023-01-30T08:06:51.621Z,98613.09
2023-01-30T08:07:55.824Z,98612.46
2023-01-30T08:09:00.147Z,98599.52
2023-01-30T08:10:04.306Z,98596.13
2023-01-30T08:11:08.523Z,98591.09
2023-01-30T08:12:12.705Z,98593.16
2023-01-30T08:13:16.831Z,98596.23
2023-01-30T08:14:20.927Z,98584.2
2023-01-30T08:15:25.073Z,98590.56
2023-01-30T08:16:29.306Z,98588.3
2023-01-30T08:17:33.492Z,98594.49
2023-01-30T08:18:37.614Z,98580.8
2023-01-30T08:19:41.720Z,98585.42
2023-01-30T08:20:45.874Z,98579.45
2023-01-30T08:21:50.052Z,98580.07
2023-01-30T08:22:54.193Z,98581
2023-01-30T08:24:01.502Z,98586.27
2023-01-30T08:25:05.770Z,98579.66
2023-01-30T08:26:10.008Z,98578.75
2023-01-30T08:27:14.262Z,98573.61
2023-01-30T08:28:18.357Z,98574.42
2023-01-30T08:29:22.571Z,98568.87
2023-01-30T08:30:26.916Z,98574.31
2023-01-30T08:31:31.295Z,98569.41
2023-01-30T08:32:35.499Z,98557.36
2023-01-30T08:33:39.604Z,98557.45
2023-01-30T08:34:43.747Z,98560.97
2023-01-30T08:35:47.838Z,98568.87
2023-01-30T08:36:51.961Z,98554.98
2023-01-30T08:37:56.151Z,98532.47
2023-01-30T08:39:00.259Z,98544.31
2023-01-30T08:40:04.385Z,98535.38
2023-01-30T08:41:08.530Z,98533.19
2023-01-30T08:42:12.634Z,98530.95
2023-01-30T08:43:16.795Z,98532.48
2023-01-30T08:44:20.898Z,98536.5
2023-01-30T08:45:24.994Z,98537.51
2023-01-30T08:46:29.206Z,98531.14
2023-01-30T08:47:33.437Z,98529.2
2023-01-30T08:48:50.487Z,98536.81
2023-01-30T08:49:54.658Z,98544.72
2023-01-30T08:50:58.750Z,98547.58
2023-01-30T08:52:02.920Z,98539.47
2023-01-30T08:53:07.244Z,98543.37
2023-01-30T08:54:11.412Z,98539.75
2023-01-30T08:55:15.597Z,98535.05
2023-01-30T08:56:19.761Z,98537.52
2023-01-30T08:57:23.895Z,98544.09
2023-01-30T08:58:28.008Z,98544.49
2023-01-30T08:59:32.174Z,98533.92
2023-01-30T09:00:36.403Z,98535.05
2023-01-30T09:01:40.571Z,98535.05
2023-01-30T09:02:46.851Z,98531.25
2023-01-30T09:03:51.283Z,98517.06
2023-01-30T09:04:55.424Z,98508.52
2023-01-30T09:05:59.566Z,98505.73
2023-01-30T09:07:03.717Z,98493.73
2023-01-30T09:08:07.903Z,98494.16
2023-01-30T09:09:12.062Z,98502.98
2023-01-30T09:10:16.463Z,98491.68
2023-01-30T09:11:21.414Z,98486.14
2023-01-30T09:12:25.524Z,98495.89
2023-01-30T09:13:29.653Z,98511.2
2023-01-30T09:14:34.171Z,98507.09
2023-01-30T09:15:38.491Z,98512.84
2023-01-30T09:16:43.729Z,98498.03
2023-01-30T09:17:48.275Z,98507.18
2023-01-30T09:18:52.387Z,98501.84
2023-01-30T09:19:56.535Z,98506.58
2023-01-30T09:21:00.619Z,98498.55
2023-01-30T09:22:04.737Z,98497.73
2023-01-30T09:23:08.915Z,98497.02
2023-01-30T09:24:13.050Z,98502.96
2023-01-30T09:25:17.163Z,98497.21
2023-01-30T09:26:21.368Z,98502.14
2023-01-30T09:27:25.541Z,98513.36
2023-01-30T09:28:29.697Z,98501.61
2023-01-30T09:29:33.786Z,98498.45
2023-01-30T09:30:38.126Z,98496.5
2023-01-30T09:31:42.440Z,98500.8
2023-01-30T09:32:46.766Z,98499.87
2023-01-30T09:33:50.930Z,98487.56
2023-01-30T09:34:55.174Z,98497.4
2023-01-30T09:35:59.476Z,98487
2023-01-30T09:37:05.948Z,98484.77
2023-01-30T09:38:10.046Z,98482.06
2023-01-30T09:39:14.166Z,98466.75
2023-01-30T09:40:19.091Z,98480.04
2023-01-30T09:41:23.825Z,98485.19
2023-01-30T09:42:27.955Z,98469.37
2023-01-30T09:43:32.107Z,98461.75
2023-01-30T09:44:36.239Z,98460.63
2023-01-30T09:45:40.383Z,98450.36
2023-01-30T09:46:44.514Z,98452.73
2023-01-30T09:47:50.356Z,98444.29
2023-01-30T09:48:54.798Z,98441.02
2023-01-30T09:50:00.034Z,98442.05
2023-01-30T09:51:04.896Z,98444.7
2023-01-30T09:52:10.794Z,98443.56
2023-01-30T09:53:15.229Z,98448.52
2023-01-30T09:54:19.683Z,98441.95
2023-01-30T09:55:24.011Z,98440.3
2023-01-30T09:56:28.123Z,98451.71
2023-01-30T09:57:32.239Z,98447.19
2023-01-30T09:58:36.355Z,98457.16
2023-01-30T09:59:40.472Z,98444
2023-01-30T10:00:44.567Z,98446.55
2023-01-30T10:01:48.739Z,98444.61
2023-01-30T10:02:52.905Z,98444.41
2023-01-30T10:03:57.037Z,98439.67
2023-01-30T10:05:03.207Z,98433.8
2023-01-30T10:06:07.404Z,98438.42
2023-01-30T10:07:11.527Z,98439.47
2023-01-30T10:08:15.663Z,98431.98
2023-01-30T10:09:19.791Z,98386.75
2023-01-30T10:10:23.947Z,98431.13
2023-01-30T10:11:28.080Z,98438.13
2023-01-30T10:12:32.292Z,98430.64
2023-01-30T10:13:36.747Z,98422.5
2023-01-30T10:14:41.009Z,98427.77
2023-01-30T10:15:45.231Z,98429.19
2023-01-30T10:16:49.550Z,98419.95
2023-01-30T10:17:53.653Z,98421.38
2023-01-30T10:18:57.972Z,98407.8
2023-01-30T10:20:02.148Z,98396.39
2023-01-30T10:21:06.393Z,98403.51
2023-01-30T10:22:10.503Z,98403.07
2023-01-30T10:23:14.606Z,98398.25
2023-01-30T10:24:18.719Z,98391.58
2023-01-30T10:25:22.844Z,98390.2
2023-01-30T10:26:27.000Z,98395.67
2023-01-30T10:27:31.167Z,98389.72
2023-01-30T10:28:35.287Z,98389.27
2023-01-30T10:29:39.603Z,98387.73
2023-01-30T10:30:43.805Z,98386.8
2023-01-30T10:31:48.110Z,98384.25
2023-01-30T10:32:52.354Z,98381.45
2023-01-30T10:33:56.467Z,98385.87
2023-01-30T10:35:00.667Z,98380
2023-01-30T10:36:04.882Z,98370.13
2023-01-30T10:37:09.000Z,98378.47
2023-01-30T10:38:13.136Z,98372.19
2023-01-30T10:39:17.245Z,98362.43
2023-01-30T10:40:21.830Z,98370.16
2023-01-30T10:41:25.951Z,98360.19
2023-01-30T10:42:30.067Z,98366.64
2023-01-30T10:43:34.163Z,98359.55
2023-01-30T10:44:38.268Z,98358.62
2023-01-30T10:45:42.367Z,98347.96
2023-01-30T10:46:46.648Z,98344.85
2023-01-30T10:47:55.493Z,98354.12
2023-01-30T10:49:00.812Z,98340.35
2023-01-30T10:50:06.007Z,98347.12
2023-01-30T10:51:10.148Z,98344.77
2023-01-30T10:52:14.295Z,98345.28
2023-01-30T10:53:18.430Z,98348.37
2023-01-30T10:54:22.572Z,98341.69
2023-01-30T10:55:38.594Z,98355.05
2023-01-30T10:56:42.867Z,98348.98
2023-01-30T10:57:47.018Z,98357.8
2023-01-30T10:58:51.148Z,98353.27
2023-01-30T10:59:55.443Z,98356.47
2023-01-30T11:00:59.662Z,98358
2023-01-30T11:02:04.020Z,98354.81
2023-01-30T11:03:08.399Z,98351.84
2023-01-30T11:04:12.559Z,98353.47
2023-01-30T11:05:17.563Z,98345.98
2023-01-30T11:06:22.227Z,98349.7
2023-01-30T11:07:26.344Z,98349.91
2023-01-30T11:08:30.521Z,98340.14
2023-01-30T11:09:34.649Z,98337.27
2023-01-30T11:10:38.767Z,98338.89
2023-01-30T11:11:42.978Z,98331.92
2023-01-30T11:12:47.103Z,98325.77
2023-01-30T11:13:51.253Z,98330.47
2023-01-30T11:14:55.408Z,98325.86
2023-01-30T11:15:59.749Z,98330.67
2023-01-30T11:17:03.961Z,98327.19
2023-01-30T11:20:23.937Z,98322.86
2023-01-30T11:21:44.881Z,98327.07
2023-01-30T11:22:49.126Z,98318.32
2023-01-30T11:23:53.231Z,98311.95
2023-01-30T11:24:57.359Z,98316.98
2023-01-30T11:26:12.074Z,98316.05
2023-01-30T11:27:16.529Z,98310.91
2023-01-30T11:28:20.853Z,98321.27
2023-01-30T11:29:24.952Z,98314.5
2023-01-30T11:30:29.192Z,98316.77
2023-01-30T11:31:42.472Z,98313.16
2023-01-30T11:32:46.730Z,98313.97
2023-01-30T11:33:50.842Z,98304.41
2023-01-30T11:34:55.090Z,98299.45
2023-01-30T11:35:59.240Z,98304.56
2023-01-30T11:37:03.365Z,98295.8
2023-01-30T11:38:07.453Z,98295.72
2023-01-30T11:39:11.546Z,98297.05
2023-01-30T11:40:16.052Z,98299.81
2023-01-30T11:41:20.813Z,98300.33
2023-01-30T11:42:24.970Z,98290.37
2023-01-30T11:43:29.094Z,98292.99
2023-01-30T11:44:33.232Z,98290.75
2023-01-30T11:45:37.427Z,98274.92
2023-01-30T11:46:41.705Z,98284.36
2023-01-30T11:47:58.770Z,98284.97
2023-01-30T11:49:51.933Z,98279.86
2023-01-30T11:51:16.751Z,98262.28
2023-01-30T11:52:20.949Z,98266.29
2023-01-30T11:53:25.274Z,98280.06
2023-01-30T11:54:29.536Z,98279.14
2023-01-30T11:55:33.645Z,98267.52
2023-01-30T11:56:37.887Z,98276.28
2023-01-30T11:57:42.006Z,98272.87
2023-01-30T11:58:46.213Z,98278.55
2023-01-30T11:59:50.325Z,98274.53
2023-01-30T12:00:54.469Z,98272.8
2023-01-30T12:01:58.687Z,98279.16
2023-01-30T12:03:03.025Z,98277.33
2023-01-30T12:04:07.233Z,98272.27
2023-01-30T12:05:11.394Z,98266.5
2023-01-30T12:06:15.490Z,98260.02
2023-01-30T12:07:19.616Z,98257.55
2023-01-30T12:08:42.652Z,98258.14
2023-01-30T12:09:46.942Z,98247.44
2023-01-30T12:10:51.094Z,98249.58
2023-01-30T12:11:55.199Z,98252.04
2023-01-30T12:12:59.338Z,98246.48
2023-01-30T12:14:03.467Z,98241.36
2023-01-30T12:15:08.826Z,98235.75
2023-01-30T12:16:13.331Z,98237.7
2023-01-30T12:17:17.525Z,98226.8
2023-01-30T12:18:21.636Z,98237.08
2023-01-30T12:19:25.748Z,98238.01
2023-01-30T12:20:29.862Z,98238.01
2023-01-30T12:21:33.962Z,98240.56
2023-01-30T12:22:38.193Z,98235.2
2023-01-30T12:23:42.292Z,98240.47
2023-01-30T12:24:46.468Z,98232.25
2023-01-30T12:25:50.589Z,98233.78
2023-01-30T12:26:54.732Z,98234.27
2023-01-30T12:29:00.286Z,98231.66
2023-01-30T12:30:04.431Z,98234.39
2023-01-30T12:31:08.641Z,98229.84
2023-01-30T12:32:12.787Z,98234.07
2023-01-30T12:34:19.751Z,98219.62
2023-01-30T12:35:28.967Z,98232
2023-01-30T12:36:33.100Z,98226.03
2023-01-30T12:37:37.216Z,98224.38
2023-01-30T12:38:41.391Z,98223.22
2023-01-30T12:39:48.582Z,98215.09
2023-01-30T12:40:52.767Z,98211.48
2023-01-30T12:41:56.885Z,98210.63
2023-01-30T12:43:01.043Z,98206.07
2023-01-30T12:44:05.214Z,98210.54
2023-01-30T12:45:09.353Z,98216.09